sensor_id;sensor_type;location;lat;lon;timestamp;temperature;humidity
36322;DHT22;23564;48.290;11.460;2023-03-05T00:00:12;0.50;99.90
36322;DHT22;23564;48.290;11.460;2023-03-05T00:02:38;0.50;99.90
36322;DHT22;23564;48.290;11.460;2023-03-05T00:05:04;0.50;99.90
36322;DHT22;23564;48.290;11.460;2023-03-05T00:07:30;0.60;99.90
36322;DHT22;23564;48.290;11.460;2023-03-05T00:09:59;0.60;99.90
36322;DHT22;23564;48.290;11.460;2023-03-05T00:12:25;0.60;99.90
36322;DHT22;23564;48.290;11.460;2023-03-05T00:14:50;0.50;99.90
36322;DHT22;23564;48.290;11.460;2023-03-05T00:17:16;0.50;99.90
36322;DHT22;23564;48.290;11.460;2023-03-05T00:19:42;0.50;1.00
36322;DHT22;23564;48.290;11.460;2023-03-05T00:22:07;0.50;1.00
36322;DHT22;23564;48.290;11.460;2023-03-05T00:24:33;0.50;1.00
36322;DHT22;23564;48.290;11.460;2023-03-05T00:26:58;0.50;1.00
36322;DHT22;23564;48.290;11.460;2023-03-05T00:29:24;0.50;1.00
36322;DHT22;23564;48.290;11.460;2023-03-05T00:31:50;0.50;1.00
36322;DHT22;23564;48.290;11.460;2023-03-05T00:34:17;0.50;1.00
36322;DHT22;23564;48.290;11.460;2023-03-05T00:36:46;0.50;1.00
36322;DHT22;23564;48.290;11.460;2023-03-05T00:39:30;0.60;1.00
36322;DHT22;23564;48.290;11.460;2023-03-05T00:41:56;0.60;1.00
36322;DHT22;23564;48.290;11.460;2023-03-05T00:44:21;0.60;1.00
36322;DHT22;23564;48.290;11.460;2023-03-05T00:46:48;0.60;1.00
36322;DHT22;23564;48.290;11.460;2023-03-05T00:49:14;0.60;1.00
36322;DHT22;23564;48.290;11.460;2023-03-05T00:51:40;0.70;1.00
36322;DHT22;23564;48.290;11.460;2023-03-05T00:54:06;0.70;1.00
36322;DHT22;23564;48.290;11.460;2023-03-05T00:56:32;0.70;99.90
36322;DHT22;23564;48.290;11.460;2023-03-05T00:58:58;0.70;99.90
36322;DHT22;23564;48.290;11.460;2023-03-05T01:01:23;0.70;1.00
36322;DHT22;23564;48.290;11.460;2023-03-05T01:03:49;0.70;1.00
36322;DHT22;23564;48.290;11.460;2023-03-05T01:06:15;0.70;1.00
36322;DHT22;23564;48.290;11.460;2023-03-05T01:08:42;0.70;1.00
36322;DHT22;23564;48.290;11.460;2023-03-05T01:11:08;0.70;1.00
36322;DHT22;23564;48.290;11.460;2023-03-05T01:13:35;0.70;1.00
36322;DHT22;23564;48.290;11.460;2023-03-05T01:16:01;0.70;1.00
36322;DHT22;23564;48.290;11.460;2023-03-05T01:18:27;0.70;1.00
36322;DHT22;23564;48.290;11.460;2023-03-05T01:20:53;0.70;1.00
36322;DHT22;23564;48.290;11.460;2023-03-05T01:23:19;0.70;1.00
36322;DHT22;23564;48.290;11.460;2023-03-05T01:25:44;0.70;1.00
36322;DHT22;23564;48.290;11.460;2023-03-05T01:28:10;0.70;1.00
36322;DHT22;23564;48.290;11.460;2023-03-05T01:30:36;0.60;1.00
36322;DHT22;23564;48.290;11.460;2023-03-05T01:33:01;0.70;1.00
36322;DHT22;23564;48.290;11.460;2023-03-05T01:35:28;0.60;1.00
36322;DHT22;23564;48.290;11.460;2023-03-05T01:37:54;0.60;1.00
36322;DHT22;23564;48.290;11.460;2023-03-05T01:40:27;0.70;27.20
36322;DHT22;23564;48.290;11.460;2023-03-05T01:45:38;0.60;28.90
36322;DHT22;23564;48.290;11.460;2023-03-05T01:48:03;0.70;19.90
36322;DHT22;23564;48.290;11.460;2023-03-05T01:50:29;0.60;51.40
36322;DHT22;23564;48.290;11.460;2023-03-05T01:53:02;0.60;59.70
36322;DHT22;23564;48.290;11.460;2023-03-05T01:55:30;0.60;85.00
36322;DHT22;23564;48.290;11.460;2023-03-05T01:58:02;0.70;81.80
36322;DHT22;23564;48.290;11.460;2023-03-05T02:00:33;0.60;66.00
36322;DHT22;23564;48.290;11.460;2023-03-05T02:03:04;0.60;70.30
36322;DHT22;23564;48.290;11.460;2023-03-05T02:05:32;0.60;66.20
36322;DHT22;23564;48.290;11.460;2023-03-05T02:08:00;0.60;61.80
36322;DHT22;23564;48.290;11.460;2023-03-05T02:10:35;0.70;99.90
36322;DHT22;23564;48.290;11.460;2023-03-05T02:13:06;0.60;99.90
36322;DHT22;23564;48.290;11.460;2023-03-05T02:15:32;0.60;99.90
36322;DHT22;23564;48.290;11.460;2023-03-05T02:17:58;0.60;99.90
36322;DHT22;23564;48.290;11.460;2023-03-05T02:20:28;0.60;99.90
36322;DHT22;23564;48.290;11.460;2023-03-05T02:22:54;0.60;99.90
36322;DHT22;23564;48.290;11.460;2023-03-05T02:25:22;0.60;99.90
36322;DHT22;23564;48.290;11.460;2023-03-05T02:27:53;0.70;99.90
36322;DHT22;23564;48.290;11.460;2023-03-05T02:30:20;0.70;99.90
36322;DHT22;23564;48.290;11.460;2023-03-05T02:32:46;0.70;99.90
36322;DHT22;23564;48.290;11.460;2023-03-05T02:35:12;0.70;99.90
36322;DHT22;23564;48.290;11.460;2023-03-05T02:37:37;0.70;99.90
36322;DHT22;23564;48.290;11.460;2023-03-05T02:40:03;0.80;99.90
36322;DHT22;23564;48.290;11.460;2023-03-05T02:42:30;0.80;99.90
36322;DHT22;23564;48.290;11.460;2023-03-05T02:44:59;0.80;99.90
36322;DHT22;23564;48.290;11.460;2023-03-05T02:47:25;0.80;99.90
36322;DHT22;23564;48.290;11.460;2023-03-05T02:49:51;0.80;99.90
36322;DHT22;23564;48.290;11.460;2023-03-05T02:52:17;0.80;99.90
36322;DHT22;23564;48.290;11.460;2023-03-05T02:54:42;0.80;99.90
36322;DHT22;23564;48.290;11.460;2023-03-05T02:57:08;0.80;99.90
36322;DHT22;23564;48.290;11.460;2023-03-05T02:59:33;0.90;99.90
36322;DHT22;23564;48.290;11.460;2023-03-05T03:01:59;0.90;99.90
36322;DHT22;23564;48.290;11.460;2023-03-05T03:04:24;0.90;99.90
36322;DHT22;23564;48.290;11.460;2023-03-05T03:06:50;0.90;99.90
36322;DHT22;23564;48.290;11.460;2023-03-05T03:09:16;0.90;99.90
36322;DHT22;23564;48.290;11.460;2023-03-05T03:11:41;0.90;99.90
36322;DHT22;23564;48.290;11.460;2023-03-05T03:14:07;0.90;99.90
36322;DHT22;23564;48.290;11.460;2023-03-05T03:16:33;0.90;99.90
36322;DHT22;23564;48.290;11.460;2023-03-05T03:18:58;1.00;99.90
36322;DHT22;23564;48.290;11.460;2023-03-05T03:21:25;0.90;99.90
36322;DHT22;23564;48.290;11.460;2023-03-05T03:23:51;1.00;99.90
36322;DHT22;23564;48.290;11.460;2023-03-05T03:26:17;0.90;99.90
36322;DHT22;23564;48.290;11.460;2023-03-05T03:28:43;0.90;99.90
36322;DHT22;23564;48.290;11.460;2023-03-05T03:31:09;1.00;99.90
36322;DHT22;23564;48.290;11.460;2023-03-05T03:33:35;1.00;99.90
36322;DHT22;23564;48.290;11.460;2023-03-05T03:36:01;1.00;99.90
36322;DHT22;23564;48.290;11.460;2023-03-05T03:38:28;1.10;99.90
36322;DHT22;23564;48.290;11.460;2023-03-05T03:40:53;1.00;91.00
36322;DHT22;23564;48.290;11.460;2023-03-05T03:43:19;1.00;99.90
36322;DHT22;23564;48.290;11.460;2023-03-05T03:45:45;1.10;91.00
36322;DHT22;23564;48.290;11.460;2023-03-05T03:48:10;1.10;99.90
36322;DHT22;23564;48.290;11.460;2023-03-05T03:50:40;1.00;99.90
36322;DHT22;23564;48.290;11.460;2023-03-05T03:53:06;1.10;84.50
36322;DHT22;23564;48.290;11.460;2023-03-05T03:55:32;1.10;92.50
36322;DHT22;23564;48.290;11.460;2023-03-05T03:57:58;1.10;99.90
36322;DHT22;23564;48.290;11.460;2023-03-05T04:00:24;1.10;99.90
36322;DHT22;23564;48.290;11.460;2023-03-05T04:02:50;1.10;99.90
36322;DHT22;23564;48.290;11.460;2023-03-05T04:05:15;1.10;99.90
36322;DHT22;23564;48.290;11.460;2023-03-05T04:07:41;1.10;99.90
36322;DHT22;23564;48.290;11.460;2023-03-05T04:10:07;1.10;99.90
36322;DHT22;23564;48.290;11.460;2023-03-05T04:12:32;1.20;99.90
36322;DHT22;23564;48.290;11.460;2023-03-05T04:14:58;1.10;99.90
36322;DHT22;23564;48.290;11.460;2023-03-05T04:17:24;1.10;99.90
36322;DHT22;23564;48.290;11.460;2023-03-05T04:19:49;1.10;99.90
36322;DHT22;23564;48.290;11.460;2023-03-05T04:22:16;1.10;99.90
36322;DHT22;23564;48.290;11.460;2023-03-05T04:24:42;1.10;99.90
36322;DHT22;23564;48.290;11.460;2023-03-05T04:27:08;1.10;99.90
36322;DHT22;23564;48.290;11.460;2023-03-05T04:29:35;1.20;99.90
36322;DHT22;23564;48.290;11.460;2023-03-05T04:32:01;1.20;99.90
36322;DHT22;23564;48.290;11.460;2023-03-05T04:34:27;1.20;99.90
36322;DHT22;23564;48.290;11.460;2023-03-05T04:36:52;1.20;99.90
36322;DHT22;23564;48.290;11.460;2023-03-05T04:39:18;1.30;99.90
36322;DHT22;23564;48.290;11.460;2023-03-05T04:41:46;1.30;99.90
36322;DHT22;23564;48.290;11.460;2023-03-05T04:44:11;1.20;99.90
36322;DHT22;23564;48.290;11.460;2023-03-05T04:46:37;1.20;99.90
36322;DHT22;23564;48.290;11.460;2023-03-05T04:49:03;1.20;99.90
36322;DHT22;23564;48.290;11.460;2023-03-05T04:51:28;1.20;99.90
36322;DHT22;23564;48.290;11.460;2023-03-05T04:53:54;1.20;99.90
36322;DHT22;23564;48.290;11.460;2023-03-05T04:56:19;1.20;99.90
36322;DHT22;23564;48.290;11.460;2023-03-05T04:58:45;1.20;99.90
36322;DHT22;23564;48.290;11.460;2023-03-05T05:01:11;1.20;99.90
36322;DHT22;23564;48.290;11.460;2023-03-05T05:03:36;1.20;99.90
36322;DHT22;23564;48.290;11.460;2023-03-05T05:06:02;1.30;99.90
36322;DHT22;23564;48.290;11.460;2023-03-05T05:08:28;1.30;99.90
36322;DHT22;23564;48.290;11.460;2023-03-05T05:11:03;1.30;99.90
36322;DHT22;23564;48.290;11.460;2023-03-05T05:13:30;1.30;99.90
36322;DHT22;23564;48.290;11.460;2023-03-05T05:15:56;1.30;99.90
36322;DHT22;23564;48.290;11.460;2023-03-05T05:18:22;1.30;99.90
36322;DHT22;23564;48.290;11.460;2023-03-05T05:20:48;1.30;99.90
36322;DHT22;23564;48.290;11.460;2023-03-05T05:23:14;1.20;99.90
36322;DHT22;23564;48.290;11.460;2023-03-05T05:25:40;1.20;99.90
36322;DHT22;23564;48.290;11.460;2023-03-05T05:28:08;1.10;99.90
36322;DHT22;23564;48.290;11.460;2023-03-05T05:30:34;1.20;99.90
36322;DHT22;23564;48.290;11.460;2023-03-05T05:32:59;1.20;99.90
36322;DHT22;23564;48.290;11.460;2023-03-05T05:35:25;1.20;99.90
36322;DHT22;23564;48.290;11.460;2023-03-05T05:37:50;1.20;99.90
36322;DHT22;23564;48.290;11.460;2023-03-05T05:40:16;1.20;99.90
36322;DHT22;23564;48.290;11.460;2023-03-05T05:42:42;1.20;99.90
36322;DHT22;23564;48.290;11.460;2023-03-05T05:45:09;1.20;99.90
36322;DHT22;23564;48.290;11.460;2023-03-05T05:47:35;1.20;99.90
36322;DHT22;23564;48.290;11.460;2023-03-05T05:50:00;1.20;99.90
36322;DHT22;23564;48.290;11.460;2023-03-05T05:52:26;1.20;99.90
36322;DHT22;23564;48.290;11.460;2023-03-05T05:54:51;1.20;99.90
36322;DHT22;23564;48.290;11.460;2023-03-05T05:57:17;1.20;99.90
36322;DHT22;23564;48.290;11.460;2023-03-05T05:59:42;1.20;99.90
36322;DHT22;23564;48.290;11.460;2023-03-05T06:02:08;1.20;99.90
36322;DHT22;23564;48.290;11.460;2023-03-05T06:04:35;1.20;99.90
36322;DHT22;23564;48.290;11.460;2023-03-05T06:07:01;1.20;99.90
36322;DHT22;23564;48.290;11.460;2023-03-05T06:09:27;1.20;99.90
36322;DHT22;23564;48.290;11.460;2023-03-05T06:11:53;1.20;99.90
36322;DHT22;23564;48.290;11.460;2023-03-05T06:14:19;1.30;99.90
36322;DHT22;23564;48.290;11.460;2023-03-05T06:16:44;1.30;99.90
36322;DHT22;23564;48.290;11.460;2023-03-05T06:19:11;1.30;99.90
36322;DHT22;23564;48.290;11.460;2023-03-05T06:21:37;1.20;99.90
36322;DHT22;23564;48.290;11.460;2023-03-05T06:24:02;1.30;99.90
36322;DHT22;23564;48.290;11.460;2023-03-05T06:26:28;1.30;99.90
36322;DHT22;23564;48.290;11.460;2023-03-05T06:28:54;1.30;99.90
36322;DHT22;23564;48.290;11.460;2023-03-05T06:31:25;1.30;99.90
36322;DHT22;23564;48.290;11.460;2023-03-05T06:33:53;1.40;99.90
36322;DHT22;23564;48.290;11.460;2023-03-05T06:36:19;1.40;99.90
36322;DHT22;23564;48.290;11.460;2023-03-05T06:38:45;1.50;99.90
36322;DHT22;23564;48.290;11.460;2023-03-05T06:41:14;1.50;99.90
36322;DHT22;23564;48.290;11.460;2023-03-05T06:43:42;1.50;99.90
36322;DHT22;23564;48.290;11.460;2023-03-05T06:46:12;1.50;99.90
36322;DHT22;23564;48.290;11.460;2023-03-05T06:48:38;1.50;99.90
36322;DHT22;23564;48.290;11.460;2023-03-05T06:51:04;1.50;99.90
36322;DHT22;23564;48.290;11.460;2023-03-05T06:53:30;1.50;99.90
36322;DHT22;23564;48.290;11.460;2023-03-05T06:55:56;1.60;99.90
36322;DHT22;23564;48.290;11.460;2023-03-05T06:58:22;1.60;99.90
36322;DHT22;23564;48.290;11.460;2023-03-05T07:00:47;1.60;87.50
36322;DHT22;23564;48.290;11.460;2023-03-05T07:03:13;1.60;98.40
36322;DHT22;23564;48.290;11.460;2023-03-05T07:05:40;1.70;66.90
36322;DHT22;23564;48.290;11.460;2023-03-05T07:08:06;1.70;76.70
36322;DHT22;23564;48.290;11.460;2023-03-05T07:10:37;1.70;15.10
36322;DHT22;23564;48.290;11.460;2023-03-05T07:13:02;1.60;22.70
36322;DHT22;23564;48.290;11.460;2023-03-05T07:15:28;1.70;6.60
36322;DHT22;23564;48.290;11.460;2023-03-05T07:17:53;1.70;24.80
36322;DHT22;23564;48.290;11.460;2023-03-05T07:20:21;1.70;23.80
36322;DHT22;23564;48.290;11.460;2023-03-05T07:22:46;1.70;10.90
36322;DHT22;23564;48.290;11.460;2023-03-05T07:25:12;1.70;58.60
36322;DHT22;23564;48.290;11.460;2023-03-05T07:27:38;1.80;47.30
36322;DHT22;23564;48.290;11.460;2023-03-05T07:30:04;1.80;1.00
36322;DHT22;23564;48.290;11.460;2023-03-05T07:32:31;1.80;39.30
36322;DHT22;23564;48.290;11.460;2023-03-05T07:34:58;1.90;38.10
36322;DHT22;23564;48.290;11.460;2023-03-05T07:37:25;1.90;25.40
36322;DHT22;23564;48.290;11.460;2023-03-05T07:39:50;1.90;32.40
36322;DHT22;23564;48.290;11.460;2023-03-05T07:42:16;1.90;59.40
36322;DHT22;23564;48.290;11.460;2023-03-05T07:44:41;1.90;30.30
36322;DHT22;23564;48.290;11.460;2023-03-05T07:47:07;1.90;90.20
36322;DHT22;23564;48.290;11.460;2023-03-05T07:49:32;1.90;80.10
36322;DHT22;23564;48.290;11.460;2023-03-05T07:51:59;2.00;68.40
36322;DHT22;23564;48.290;11.460;2023-03-05T07:54:25;2.00;84.20
36322;DHT22;23564;48.290;11.460;2023-03-05T07:56:50;2.00;57.00
36322;DHT22;23564;48.290;11.460;2023-03-05T07:59:18;2.00;21.70
36322;DHT22;23564;48.290;11.460;2023-03-05T08:01:44;2.00;48.10
36322;DHT22;23564;48.290;11.460;2023-03-05T08:04:10;2.10;4.10
36322;DHT22;23564;48.290;11.460;2023-03-05T08:06:40;2.10;1.00
36322;DHT22;23564;48.290;11.460;2023-03-05T08:09:06;2.10;1.00
36322;DHT22;23564;48.290;11.460;2023-03-05T08:11:31;2.20;1.00
36322;DHT22;23564;48.290;11.460;2023-03-05T08:13:57;2.10;1.00
36322;DHT22;23564;48.290;11.460;2023-03-05T08:16:24;2.10;1.00
36322;DHT22;23564;48.290;11.460;2023-03-05T08:18:54;2.20;1.00
36322;DHT22;23564;48.290;11.460;2023-03-05T08:21:29;2.20;1.00
36322;DHT22;23564;48.290;11.460;2023-03-05T08:23:56;2.20;1.00
36322;DHT22;23564;48.290;11.460;2023-03-05T08:26:23;2.30;1.00
36322;DHT22;23564;48.290;11.460;2023-03-05T08:28:50;2.30;99.90
36322;DHT22;23564;48.290;11.460;2023-03-05T08:31:17;2.40;99.90
36322;DHT22;23564;48.290;11.460;2023-03-05T08:33:43;2.40;99.90
36322;DHT22;23564;48.290;11.460;2023-03-05T08:36:09;2.40;99.90
36322;DHT22;23564;48.290;11.460;2023-03-05T08:38:35;2.40;99.90
36322;DHT22;23564;48.290;11.460;2023-03-05T08:41:01;2.40;99.90
36322;DHT22;23564;48.290;11.460;2023-03-05T08:43:26;2.50;99.90
36322;DHT22;23564;48.290;11.460;2023-03-05T08:45:52;2.50;99.90
36322;DHT22;23564;48.290;11.460;2023-03-05T08:48:19;2.60;99.90
36322;DHT22;23564;48.290;11.460;2023-03-05T08:50:44;2.50;99.90
36322;DHT22;23564;48.290;11.460;2023-03-05T08:53:10;2.60;99.90
36322;DHT22;23564;48.290;11.460;2023-03-05T08:55:36;2.60;99.90
36322;DHT22;23564;48.290;11.460;2023-03-05T08:58:02;2.60;99.90
36322;DHT22;23564;48.290;11.460;2023-03-05T09:00:28;2.60;99.90
36322;DHT22;23564;48.290;11.460;2023-03-05T09:02:53;2.70;99.90
36322;DHT22;23564;48.290;11.460;2023-03-05T09:05:19;2.70;99.90
36322;DHT22;23564;48.290;11.460;2023-03-05T09:07:45;2.80;99.90
36322;DHT22;23564;48.290;11.460;2023-03-05T09:10:11;2.90;99.90
36322;DHT22;23564;48.290;11.460;2023-03-05T09:12:39;3.00;99.90
36322;DHT22;23564;48.290;11.460;2023-03-05T09:15:06;3.00;99.90
36322;DHT22;23564;48.290;11.460;2023-03-05T09:17:33;3.10;99.90
36322;DHT22;23564;48.290;11.460;2023-03-05T09:20:00;3.10;91.90
36322;DHT22;23564;48.290;11.460;2023-03-05T09:22:25;3.10;62.40
36322;DHT22;23564;48.290;11.460;2023-03-05T09:24:51;3.10;1.00
36322;DHT22;23564;48.290;11.460;2023-03-05T09:27:16;3.10;1.00
36322;DHT22;23564;48.290;11.460;2023-03-05T09:29:42;3.10;99.90
36322;DHT22;23564;48.290;11.460;2023-03-05T09:32:07;3.10;1.00
36322;DHT22;23564;48.290;11.460;2023-03-05T09:34:33;3.10;99.90
36322;DHT22;23564;48.290;11.460;2023-03-05T09:36:59;3.20;3.10
36322;DHT22;23564;48.290;11.460;2023-03-05T09:39:24;3.20;1.00
36322;DHT22;23564;48.290;11.460;2023-03-05T09:45:02;3.10;36.50
36322;DHT22;23564;48.290;11.460;2023-03-05T09:52:55;3.10;19.00
36322;DHT22;23564;48.290;11.460;2023-03-05T09:55:28;3.20;55.40
36322;DHT22;23564;48.290;11.460;2023-03-05T09:58:03;3.10;1.00
36322;DHT22;23564;48.290;11.460;2023-03-05T10:00:39;3.10;24.70
36322;DHT22;23564;48.290;11.460;2023-03-05T10:03:27;3.10;1.00
36322;DHT22;23564;48.290;11.460;2023-03-05T10:06:21;3.10;63.20
36322;DHT22;23564;48.290;11.460;2023-03-05T10:08:54;3.10;55.10
36322;DHT22;23564;48.290;11.460;2023-03-05T10:14:13;3.20;25.30
36322;DHT22;23564;48.290;11.460;2023-03-05T10:22:16;3.20;99.90
36322;DHT22;23564;48.290;11.460;2023-03-05T10:27:54;3.20;92.20
36322;DHT22;23564;48.290;11.460;2023-03-05T10:44:50;3.50;99.90
36322;DHT22;23564;48.290;11.460;2023-03-05T10:47:14;3.50;1.00
36322;DHT22;23564;48.290;11.460;2023-03-05T10:49:49;3.50;1.00
36322;DHT22;23564;48.290;11.460;2023-03-05T10:52:36;3.50;1.00
36322;DHT22;23564;48.290;11.460;2023-03-05T10:55:13;3.50;1.00
36322;DHT22;23564;48.290;11.460;2023-03-05T10:57:39;3.50;1.00
36322;DHT22;23564;48.290;11.460;2023-03-05T11:02:31;3.60;21.20
36322;DHT22;23564;48.290;11.460;2023-03-05T11:04:57;3.60;1.00
36322;DHT22;23564;48.290;11.460;2023-03-05T11:10:16;3.60;1.00
36322;DHT22;23564;48.290;11.460;2023-03-05T11:12:42;3.70;1.00
36322;DHT22;23564;48.290;11.460;2023-03-05T11:17:43;3.80;99.90
36322;DHT22;23564;48.290;11.460;2023-03-05T11:28:28;3.90;99.90
36322;DHT22;23564;48.290;11.460;2023-03-05T11:30:58;3.90;1.00
36322;DHT22;23564;48.290;11.460;2023-03-05T11:33:24;3.90;1.00
36322;DHT22;23564;48.290;11.460;2023-03-05T11:35:51;4.00;1.00
36322;DHT22;23564;48.290;11.460;2023-03-05T11:38:26;4.00;52.80
36322;DHT22;23564;48.290;11.460;2023-03-05T11:40:54;4.10;1.00
36322;DHT22;23564;48.290;11.460;2023-03-05T11:43:22;4.00;1.00
36322;DHT22;23564;48.290;11.460;2023-03-05T11:45:54;4.00;1.00
36322;DHT22;23564;48.290;11.460;2023-03-05T11:48:34;4.00;99.90
36322;DHT22;23564;48.290;11.460;2023-03-05T11:51:04;4.00;99.90
36322;DHT22;23564;48.290;11.460;2023-03-05T11:53:34;3.90;76.80
36322;DHT22;23564;48.290;11.460;2023-03-05T11:56:26;3.90;1.00
36322;DHT22;23564;48.290;11.460;2023-03-05T11:59:16;3.90;99.90
36322;DHT22;23564;48.290;11.460;2023-03-05T12:01:50;3.90;99.90
36322;DHT22;23564;48.290;11.460;2023-03-05T12:04:17;3.90;1.00
36322;DHT22;23564;48.290;11.460;2023-03-05T12:07:02;3.90;1.00
36322;DHT22;23564;48.290;11.460;2023-03-05T12:09:46;4.00;1.00
36322;DHT22;23564;48.290;11.460;2023-03-05T12:16:05;4.00;99.90
36322;DHT22;23564;48.290;11.460;2023-03-05T12:20:37;4.10;1.00
36322;DHT22;23564;48.290;11.460;2023-03-05T12:23:11;4.10;99.90
36322;DHT22;23564;48.290;11.460;2023-03-05T12:25:57;4.00;99.90
36322;DHT22;23564;48.290;11.460;2023-03-05T12:31:11;4.00;99.90
36322;DHT22;23564;48.290;11.460;2023-03-05T12:33:45;4.00;99.90
36322;DHT22;23564;48.290;11.460;2023-03-05T12:36:33;4.00;70.70
36322;DHT22;23564;48.290;11.460;2023-03-05T12:38:59;4.10;99.90
36322;DHT22;23564;48.290;11.460;2023-03-05T12:41:31;4.10;99.90
36322;DHT22;23564;48.290;11.460;2023-03-05T12:46:44;4.10;99.90
36322;DHT22;23564;48.290;11.460;2023-03-05T12:51:53;4.00;1.00
36322;DHT22;23564;48.290;11.460;2023-03-05T12:57:01;3.90;1.00
36322;DHT22;23564;48.290;11.460;2023-03-05T12:59:42;3.90;47.40
36322;DHT22;23564;48.290;11.460;2023-03-05T13:02:31;3.90;1.00
36322;DHT22;23564;48.290;11.460;2023-03-05T13:05:02;3.90;99.90
36322;DHT22;23564;48.290;11.460;2023-03-05T13:07:28;3.80;99.90
36322;DHT22;23564;48.290;11.460;2023-03-05T13:09:56;3.90;99.90
36322;DHT22;23564;48.290;11.460;2023-03-05T13:12:23;3.90;99.90
36322;DHT22;23564;48.290;11.460;2023-03-05T13:15:02;3.90;99.90
36322;DHT22;23564;48.290;11.460;2023-03-05T13:17:30;3.90;99.90
36322;DHT22;23564;48.290;11.460;2023-03-05T13:19:57;3.90;99.90
36322;DHT22;23564;48.290;11.460;2023-03-05T13:22:22;4.00;99.90
36322;DHT22;23564;48.290;11.460;2023-03-05T13:25:15;4.00;1.00
36322;DHT22;23564;48.290;11.460;2023-03-05T13:27:44;4.00;99.90
36322;DHT22;23564;48.290;11.460;2023-03-05T13:30:28;4.00;99.90
36322;DHT22;23564;48.290;11.460;2023-03-05T13:32:59;4.00;99.90
36322;DHT22;23564;48.290;11.460;2023-03-05T13:35:27;4.00;99.90
36322;DHT22;23564;48.290;11.460;2023-03-05T13:37:53;3.90;99.90
36322;DHT22;23564;48.290;11.460;2023-03-05T13:40:26;3.90;99.90
36322;DHT22;23564;48.290;11.460;2023-03-05T13:42:52;3.90;99.90
36322;DHT22;23564;48.290;11.460;2023-03-05T13:47:56;3.90;99.90
36322;DHT22;23564;48.290;11.460;2023-03-05T13:50:37;3.90;99.90
36322;DHT22;23564;48.290;11.460;2023-03-05T13:53:19;3.90;99.90
36322;DHT22;23564;48.290;11.460;2023-03-05T13:55:48;3.90;99.90
36322;DHT22;23564;48.290;11.460;2023-03-05T13:58:43;3.90;99.90
36322;DHT22;23564;48.290;11.460;2023-03-05T14:01:24;3.90;99.90
36322;DHT22;23564;48.290;11.460;2023-03-05T14:03:51;3.90;99.90
36322;DHT22;23564;48.290;11.460;2023-03-05T14:06:21;3.90;99.90
36322;DHT22;23564;48.290;11.460;2023-03-05T14:08:50;3.90;93.40
36322;DHT22;23564;48.290;11.460;2023-03-05T14:11:17;3.80;82.30
36322;DHT22;23564;48.290;11.460;2023-03-05T14:13:44;3.80;96.80
36322;DHT22;23564;48.290;11.460;2023-03-05T14:16:12;3.70;99.90
36322;DHT22;23564;48.290;11.460;2023-03-05T14:18:39;3.70;99.90
36322;DHT22;23564;48.290;11.460;2023-03-05T14:21:16;3.70;99.90
36322;DHT22;23564;48.290;11.460;2023-03-05T14:23:44;3.70;99.90
36322;DHT22;23564;48.290;11.460;2023-03-05T14:29:03;3.60;99.90
36322;DHT22;23564;48.290;11.460;2023-03-05T14:31:31;3.60;1.00
36322;DHT22;23564;48.290;11.460;2023-03-05T14:34:02;3.60;1.00
36322;DHT22;23564;48.290;11.460;2023-03-05T14:36:29;3.60;99.90
36322;DHT22;23564;48.290;11.460;2023-03-05T14:38:55;3.60;1.00
36322;DHT22;23564;48.290;11.460;2023-03-05T14:41:37;3.60;1.00
36322;DHT22;23564;48.290;11.460;2023-03-05T14:44:16;3.60;64.30
36322;DHT22;23564;48.290;11.460;2023-03-05T14:46:47;3.60;99.90
36322;DHT22;23564;48.290;11.460;2023-03-05T14:49:13;3.60;99.90
36322;DHT22;23564;48.290;11.460;2023-03-05T14:51:42;3.50;1.00
36322;DHT22;23564;48.290;11.460;2023-03-05T14:54:22;3.50;99.90
36322;DHT22;23564;48.290;11.460;2023-03-05T14:56:49;3.50;99.90
36322;DHT22;23564;48.290;11.460;2023-03-05T14:59:16;3.60;99.90
36322;DHT22;23564;48.290;11.460;2023-03-05T15:01:42;3.60;99.90
36322;DHT22;23564;48.290;11.460;2023-03-05T15:04:08;3.60;99.90
36322;DHT22;23564;48.290;11.460;2023-03-05T15:06:36;3.70;99.90
36322;DHT22;23564;48.290;11.460;2023-03-05T15:09:04;3.60;99.90
36322;DHT22;23564;48.290;11.460;2023-03-05T15:11:29;3.60;99.90
36322;DHT22;23564;48.290;11.460;2023-03-05T15:13:55;3.60;99.90
36322;DHT22;23564;48.290;11.460;2023-03-05T15:16:21;3.50;99.90
36322;DHT22;23564;48.290;11.460;2023-03-05T15:18:47;3.60;99.90
36322;DHT22;23564;48.290;11.460;2023-03-05T15:21:14;3.60;99.90
36322;DHT22;23564;48.290;11.460;2023-03-05T15:23:39;3.60;99.90
36322;DHT22;23564;48.290;11.460;2023-03-05T15:26:07;3.60;99.90
36322;DHT22;23564;48.290;11.460;2023-03-05T15:28:35;3.60;99.90
36322;DHT22;23564;48.290;11.460;2023-03-05T15:31:01;3.50;99.90
36322;DHT22;23564;48.290;11.460;2023-03-05T15:33:27;3.60;99.90
36322;DHT22;23564;48.290;11.460;2023-03-05T15:35:53;3.50;99.90
36322;DHT22;23564;48.290;11.460;2023-03-05T15:38:19;3.60;78.50
36322;DHT22;23564;48.290;11.460;2023-03-05T15:40:45;3.50;9.80
36322;DHT22;23564;48.290;11.460;2023-03-05T15:43:12;3.50;1.00
36322;DHT22;23564;48.290;11.460;2023-03-05T15:45:37;3.50;1.00
36322;DHT22;23564;48.290;11.460;2023-03-05T15:48:03;3.40;1.00
36322;DHT22;23564;48.290;11.460;2023-03-05T15:50:29;3.40;1.00
36322;DHT22;23564;48.290;11.460;2023-03-05T15:52:54;3.40;1.00
36322;DHT22;23564;48.290;11.460;2023-03-05T15:55:20;3.30;1.00
36322;DHT22;23564;48.290;11.460;2023-03-05T15:57:48;3.30;2.60
36322;DHT22;23564;48.290;11.460;2023-03-05T16:00:16;3.30;18.30
36322;DHT22;23564;48.290;11.460;2023-03-05T16:02:41;3.30;42.10
36322;DHT22;23564;48.290;11.460;2023-03-05T16:05:08;3.30;95.20
36322;DHT22;23564;48.290;11.460;2023-03-05T16:07:36;3.30;30.30
36322;DHT22;23564;48.290;11.460;2023-03-05T16:10:03;3.30;70.40
36322;DHT22;23564;48.290;11.460;2023-03-05T16:12:32;3.20;50.80
36322;DHT22;23564;48.290;11.460;2023-03-05T16:15:09;3.20;78.60
36322;DHT22;23564;48.290;11.460;2023-03-05T16:17:36;3.20;52.50
36322;DHT22;23564;48.290;11.460;2023-03-05T16:20:04;3.20;39.20
36322;DHT22;23564;48.290;11.460;2023-03-05T16:22:29;3.20;21.60
36322;DHT22;23564;48.290;11.460;2023-03-05T16:24:55;3.20;27.70
36322;DHT22;23564;48.290;11.460;2023-03-05T16:27:21;3.20;79.50
36322;DHT22;23564;48.290;11.460;2023-03-05T16:29:47;3.10;99.90
36322;DHT22;23564;48.290;11.460;2023-03-05T16:32:13;3.10;78.00
36322;DHT22;23564;48.290;11.460;2023-03-05T16:34:38;3.10;99.60
36322;DHT22;23564;48.290;11.460;2023-03-05T16:37:04;3.10;91.20
36322;DHT22;23564;48.290;11.460;2023-03-05T16:39:31;3.10;68.60
36322;DHT22;23564;48.290;11.460;2023-03-05T16:41:57;3.10;98.40
36322;DHT22;23564;48.290;11.460;2023-03-05T16:44:22;3.10;90.40
36322;DHT22;23564;48.290;11.460;2023-03-05T16:46:48;3.10;81.50
36322;DHT22;23564;48.290;11.460;2023-03-05T16:49:18;3.10;47.90
36322;DHT22;23564;48.290;11.460;2023-03-05T16:51:44;3.00;43.60
36322;DHT22;23564;48.290;11.460;2023-03-05T16:54:09;3.00;32.20